Flight Track Log - Related Links

Times and Time Zones

All times are in EDT time to prevent confusion due to time zone crossing. See the AWI3704 flight status page for this flight to view local times or setup timezone preferences in your user account.

Time Position Orientation Groundspeed Altitude Reporting Facility
EDT Latitude Longitude Course Direction KTS MPH feet Rate Location/Type
Sat 09:50:26 39.8667 -75.2833 37° Northeast 154 177 700  Level Philadelphia TRACON
Sat 09:52:00 39.8167 -74.9130 90° East  Level FlightAware Approximate
Sat 09:52:02 39.7833 -75.3333 205° Southwest 220 253 4,000  Level Philadelphia TRACON
Sat 09:53:00 39.8039 -74.8026 105° East  Level FlightAware Approximate
Sat 09:53:08 39.7500 -75.2500 117° Southeast 271 312 6,500  Level Philadelphia TRACON
Sat 09:53:50 39.7500 -75.1833 90° East 306 352 7,600 1,824 Climbing Philadelphia TRACON
Sat 09:54:00 39.7873 -74.6961 37° Northeast  Level FlightAware Approximate
Sat 09:54:50 39.7667 -75.0667 79° East 315 362 9,600  Level Philadelphia TRACON
Sat 09:55:00 39.8558 -74.6276 37° Northeast  Level FlightAware Approximate
Sat 09:57:06 39.7864 -74.7933 85° East 356 410 12,100  Level New York Center
Sat 09:58:08 39.8428 -74.6694 59° Northeast 377 434 13,300 1,574 Climbing New York Center
Sat 09:59:08 39.9289 -74.5850 37° Northeast 368 423 15,300 1,780 Climbing New York Center
Sat 10:00:06 40.0150 -74.5003 37° Northeast 368 423 16,800 1,412 Climbing New York Center
Sat 10:01:07 40.1011 -74.4153 37° Northeast 387 445 18,100 1,140 Climbing New York Center
Sat 10:02:07 40.1892 -74.3250 38° Northeast 393 452 19,100 992 Climbing New York Center
Sat 10:03:08 40.2794 -74.2369 37° Northeast 398 458 20,100 1,008 Climbing New York Center
Sat 10:04:06 40.3878 -74.2342 North 367 422 21,100 1,024 Climbing New York Center
Sat 10:05:52 40.5808 -74.2708 352° North 422 486 22,900 1,012 Climbing Boston Center
Sat 10:06:52 40.6575 -74.1636 47° Northeast 370 426 23,900 550 Climbing Boston Center
Sat 10:07:52 40.7222 -74.0175 60° Northeast 376 433 24,000  Climbing Boston Center
Sat 10:09:04 40.7864 -73.8792 58° Northeast 402 463 23,900  Descending Boston Center
Sat 10:10:04 40.8922 -73.7442 44° Northeast 427 491 24,000 -150 Climbing Boston Center
Sat 10:11:04 40.9747 -73.6497 41° Northeast 432 497 23,600 -500 Descending Boston Center
Sat 10:12:04 41.0839 -73.5747 27° Northeast 432 497 23,000 -600 Descending Boston Center
Sat 10:13:04 41.1908 -73.5019 27° Northeast 432 497 22,400 -850 Descending Boston Center
Sat 10:14:04 41.2997 -73.4319 26° Northeast 432 497 21,300 -1,700 Descending Boston Center
Sat 10:15:04 41.4206 -73.4506 353° North 396 456 19,000 -1,150 Descending Boston Center
Sat 10:16:04 41.5267 -73.4606 356° North 386 444 19,000 -550 Level Boston Center
Sat 10:17:04 41.6328 -73.4733 355° North 386 444 17,900 -950 Descending Boston Center
Sat 10:18:04 41.7392 -73.4833 356° North 386 444 17,100 -750 Descending Boston Center
Sat 10:19:04 41.8472 -73.4964 355° North 386 444 16,400 -800 Descending Boston Center
Sat 10:20:04 41.9494 -73.5092 355° North 380 437 15,500 -1,100 Descending Boston Center
Sat 10:21:04 42.0514 -73.5192 356° North 369 425 14,200 -1,333 Descending Boston Center
Sat 10:21:34 42.1014 -73.5258 354° North 357 411 13,500 -1,200 Descending Boston Center
Sat 10:22:04 42.1472 -73.5239 North 364 419 13,000 -1,200 Descending Boston Center
Sat 10:22:34 42.2017 -73.5106 10° North 360 414 12,300 -1,200 Descending Boston Center
Sat 10:23:04 42.2494 -73.5144 357° North 359 413 11,800 -1,180 Descending Boston Center
Sat 10:23:35 42.3014 -73.5236 353° North 360 414 11,100 -989 Descending Boston Center
Sat 10:24:35 42.3886 -73.5478 348° North 321 369 10,300 -1,129 Descending Boston Center
Sat 10:25:16 42.4367 -73.5569 352° North 309 356 9,200 -1,918 Descending Boston Center
Sat 10:26:37 42.5531 -73.5872 349° North 284 327 6,400 -2,000 Descending Boston Center
Sat 10:27:37 42.6300 -73.6028 352° North 275 316 4,500 -1,900 Descending Boston Center

Login

Don't have an account? Register now (free) for customized features, flight alerts, and more!